Time;durP1;ratioP1;P1;durP2;ratioP2;P2;SDS_P1;SDS_P2;PMS_P1;PMS_P2;Temp;Humidity;BMP_temperature;BMP_pressure;BME280_temperature;BME280_humidity;BME280_pressure;Samples;Min_cycle;Max_cycle;Signal;HPM_P1;HPM_P2
2023/12/21 00:00:51;;;;;;;0.32;0.30;;;;;;;3.51;100.00;92894.88;2106770;28;20415;-78
2023/12/21 00:01:52;;;;;;;0.30;0.30;;;;;;;3.49;100.00;92897.91;2115281;28;20046;-78
2023/12/21 00:02:53;;;;;;;0.75;0.30;;;;;;;3.44;100.00;92893.00;2123711;27;20032;-80
2023/12/21 00:03:54;;;;;;;0.40;0.30;;;;;;;3.42;100.00;92889.19;2115200;28;20611;-77
2023/12/21 00:04:55;;;;;;;2.30;0.30;;;;;;;3.59;100.00;92891.09;2120092;27;20034;-78
2023/12/21 00:05:56;;;;;;;0.60;0.30;;;;;;;3.56;100.00;92885.81;2123702;27;20052;-79
2023/12/21 00:06:57;;;;;;;0.55;0.30;;;;;;;3.43;100.00;92877.53;2115142;28;20027;-79
2023/12/21 00:07:58;;;;;;;0.38;0.30;;;;;;;3.35;100.00;92884.69;2107179;28;20569;-80
2023/12/21 00:08:59;;;;;;;0.70;0.25;;;;;;;3.46;100.00;92884.69;2119482;27;20064;-78
2023/12/21 00:10:00;;;;;;;0.40;0.40;;;;;;;3.43;100.00;92886.19;2123666;27;20046;-77
2023/12/21 00:11:01;;;;;;;0.88;0.38;;;;;;;3.47;100.00;92883.56;2132792;27;20018;-79
2023/12/21 00:12:03;;;;;;;0.32;0.30;;;;;;;3.42;100.00;92887.31;2123657;27;20467;-79
2023/12/21 00:13:04;;;;;;;0.40;0.40;;;;;;;3.45;100.00;92883.16;2122536;27;20498;-80
2023/12/21 00:14:05;;;;;;;1.05;0.40;;;;;;;3.30;100.00;92889.56;2114824;28;20035;-79
2023/12/21 00:15:06;;;;;;;1.23;0.50;;;;;;;3.43;100.00;92878.28;2106612;28;20024;-80
2023/12/21 00:16:07;;;;;;;0.57;0.40;;;;;;;3.35;100.00;92879.38;2107712;28;20020;-80
2023/12/21 00:17:08;;;;;;;0.65;0.40;;;;;;;3.27;100.00;92891.81;2120950;27;20059;-79
2023/12/21 00:18:09;;;;;;;1.00;0.40;;;;;;;3.35;100.00;92894.50;2123696;27;20144;-80
2023/12/21 00:19:11;;;;;;;1.65;0.40;;;;;;;3.63;100.00;92891.88;2114257;28;20110;-79
2023/12/21 00:20:12;;;;;;;0.50;0.40;;;;;;;3.57;100.00;92888.09;2112365;28;20861;-79
2023/12/21 00:21:13;;;;;;;0.82;0.40;;;;;;;3.53;100.00;92888.09;2109828;28;20526;-80
2023/12/21 00:22:14;;;;;;;1.13;0.43;;;;;;;3.75;100.00;92890.75;2115292;28;20016;-78
2023/12/21 00:23:15;;;;;;;1.48;0.30;;;;;;;3.82;100.00;92882.03;2117040;27;20023;-79
2023/12/21 00:24:16;;;;;;;0.30;0.30;;;;;;;3.90;100.00;92889.59;2115047;28;20035;-79
2023/12/21 00:25:17;;;;;;;0.50;0.40;;;;;;;3.84;100.00;92887.72;2111008;28;20039;-79
2023/12/21 00:26:18;;;;;;;0.65;0.30;;;;;;;3.96;100.00;92880.16;2115614;27;20569;-80
2023/12/21 00:27:19;;;;;;;0.70;0.40;;;;;;;4.00;100.00;92875.63;2115638;27;20051;-77
2023/12/21 00:28:20;;;;;;;0.95;0.45;;;;;;;3.82;100.00;92869.59;2125407;27;20023;-79
2023/12/21 00:29:21;;;;;;;0.50;0.38;;;;;;;3.66;100.00;92874.50;2123212;27;20023;-79
2023/12/21 00:30:21;;;;;;;0.47;0.47;;;;;;;3.63;100.00;92873.38;2114969;28;20030;-77
2023/12/21 00:31:22;;;;;;;2.05;0.43;;;;;;;3.72;100.00;92873.00;2115970;27;20450;-80
2023/12/21 00:32:23;;;;;;;0.47;0.40;;;;;;;3.63;100.00;92877.91;2106709;28;20028;-80
2023/12/21 00:33:24;;;;;;;1.17;0.52;;;;;;;3.73;100.00;92877.13;2106790;28;20031;-80
2023/12/21 00:34:25;;;;;;;0.43;0.40;;;;;;;3.76;100.00;92873.75;2124035;27;20027;-77
2023/12/21 00:35:26;;;;;;;0.35;0.35;;;;;;;3.87;100.00;92887.72;2124158;27;20046;-78
2023/12/21 00:36:27;;;;;;;0.30;0.30;;;;;;;3.93;100.00;92877.53;2114959;28;20036;-77
2023/12/21 00:37:28;;;;;;;0.30;0.30;;;;;;;3.79;100.00;92880.94;2106785;28;20020;-79
2023/12/21 00:38:29;;;;;;;0.47;0.45;;;;;;;3.93;100.00;92883.56;2115148;28;20087;-79
2023/12/21 00:39:30;;;;;;;0.40;0.40;;;;;;;3.90;100.00;92876.38;2106163;28;20563;-81
2023/12/21 00:40:31;;;;;;;0.77;0.35;;;;;;;3.75;100.00;92880.19;2106636;28;20024;-82
2023/12/21 00:41:32;;;;;;;0.30;0.30;;;;;;;3.77;100.00;92878.66;2114999;28;20023;-78
2023/12/21 00:42:33;;;;;;;2.47;0.45;;;;;;;3.84;100.00;92880.53;2122603;27;20074;-78
2023/12/21 00:43:34;;;;;;;0.88;0.50;;;;;;;3.83;100.00;92886.97;2123738;27;20105;-78
2023/12/21 00:44:35;;;;;;;1.15;0.47;;;;;;;4.23;100.00;92877.13;2117444;27;20468;-82
2023/12/21 00:45:36;;;;;;;0.40;0.40;;;;;;;3.96;100.00;92884.72;2110790;28;20024;-77
2023/12/21 00:46:37;;;;;;;0.75;0.40;;;;;;;4.00;100.00;92885.47;2122608;27;20086;-80
2023/12/21 00:47:38;;;;;;;0.73;0.30;;;;;;;3.89;100.00;92890.75;2107542;28;20477;-79
2023/12/21 00:48:39;;;;;;;0.30;0.30;;;;;;;3.83;100.00;92889.63;2104917;28;20020;-79
2023/12/21 00:49:40;;;;;;;1.00;0.50;;;;;;;3.80;100.00;92890.38;2106504;28;20472;-79
2023/12/21 00:50:41;;;;;;;0.65;0.40;;;;;;;3.70;100.00;92889.22;2119063;27;20786;-78
2023/12/21 00:51:42;;;;;;;0.35;0.35;;;;;;;3.89;100.00;92882.06;2109417;28;20066;-78
2023/12/21 00:52:43;;;;;;;0.35;0.30;;;;;;;3.95;100.00;92889.25;2115017;28;20023;-78
2023/12/21 00:53:44;;;;;;;0.30;0.30;;;;;;;3.97;100.00;92888.84;2128273;27;20033;-79
2023/12/21 00:54:45;;;;;;;0.55;0.45;;;;;;;3.90;100.00;92884.31;2124867;27;20023;-79
2023/12/21 00:55:45;;;;;;;0.40;0.40;;;;;;;3.87;100.00;92893.03;2123891;27;20031;-78
2023/12/21 00:56:46;;;;;;;0.30;0.30;;;;;;;3.78;100.00;92890.00;2118574;27;20102;-79
2023/12/21 00:57:47;;;;;;;0.73;0.32;;;;;;;3.91;100.00;92883.19;2121806;27;20030;-78
2023/12/21 00:58:48;;;;;;;0.50;0.50;;;;;;;3.79;100.00;92883.56;2110191;28;20472;-80
2023/12/21 00:59:49;;;;;;;1.13;0.38;;;;;;;3.87;100.00;92877.16;2114897;27;20042;-78
2023/12/21 01:00:50;;;;;;;0.90;0.40;;;;;;;3.82;100.00;92866.19;2125262;27;20030;-77
2023/12/21 01:01:51;;;;;;;0.40;0.40;;;;;;;3.83;100.00;92863.19;2108454;28;20473;-80
2023/12/21 01:02:52;;;;;;;0.63;0.40;;;;;;;3.83;100.00;92857.91;2106545;28;20051;-79
2023/12/21 01:03:53;;;;;;;0.50;0.30;;;;;;;3.87;100.00;92855.25;2114645;28;20492;-79
2023/12/21 01:04:54;;;;;;;0.70;0.30;;;;;;;3.68;100.00;92859.03;2106262;28;20028;-80
2023/12/21 01:05:55;;;;;;;0.30;0.30;;;;;;;3.82;100.00;92855.59;2106395;28;20031;-81
2023/12/21 01:06:56;;;;;;;0.30;0.30;;;;;;;3.75;100.00;92845.81;2106449;28;20387;-81
2023/12/21 01:07:58;;;;;;;0.35;0.35;;;;;;;3.79;100.00;92849.97;2124145;27;20027;-78
2023/12/21 01:08:59;;;;;;;2.58;0.40;;;;;;;3.72;100.00;92849.19;2126349;27;20102;-78
2023/12/21 01:09:59;;;;;;;0.22;0.22;;;;;;;3.78;100.00;92842.41;2077924;27;20038;-79
2023/12/21 01:11:00;;;;;;;0.38;0.38;;;;;;;3.75;100.00;92849.22;2033773;27;20022;-78
2023/12/21 01:12:01;;;;;;;0.30;0.30;;;;;;;3.76;100.00;92844.66;2034231;27;20054;-78
2023/12/21 01:13:02;;;;;;;0.40;0.40;;;;;;;3.75;100.00;92843.16;2050157;27;20404;-80
2023/12/21 01:14:04;;;;;;;0.30;0.30;;;;;;;3.71;100.00;92837.88;2057122;27;20050;-79
2023/12/21 01:15:07;;;;;;;0.85;0.30;;;;;;;3.56;100.00;92832.97;2065296;27;20743;-79
2023/12/21 01:16:09;;;;;;;0.30;0.30;;;;;;;3.53;100.00;92837.88;2062409;27;20039;-79
2023/12/21 01:17:10;;;;;;;1.38;0.40;;;;;;;3.57;100.00;92829.97;2059165;28;20566;-81
2023/12/21 01:18:11;;;;;;;0.38;0.38;;;;;;;3.65;100.00;92830.72;2071817;27;20036;-77
2023/12/21 01:19:12;;;;;;;0.88;0.50;;;;;;;3.81;100.00;92825.78;2085149;27;20030;-76
2023/12/21 01:20:13;;;;;;;0.60;0.50;;;;;;;3.82;100.00;92824.66;2087441;27;20030;-78
2023/12/21 01:21:14;;;;;;;1.05;0.47;;;;;;;3.76;100.00;92824.28;2088435;27;22472;-78
2023/12/21 01:22:15;;;;;;;0.57;0.50;;;;;;;3.81;100.00;92828.44;2095396;27;22823;-79
2023/12/21 01:23:16;;;;;;;1.17;0.40;;;;;;;3.85;100.00;92812.56;2100149;27;20031;-78
2023/12/21 01:24:17;;;;;;;0.30;0.30;;;;;;;3.66;100.00;92824.28;2096787;28;20031;-78
2023/12/21 01:25:18;;;;;;;0.40;0.40;;;;;;;3.80;100.00;92819.00;2108749;27;20047;-78
2023/12/21 01:26:19;;;;;;;0.82;0.40;;;;;;;3.87;100.00;92821.63;2106409;28;20032;-79
2023/12/21 01:27:20;;;;;;;0.45;0.40;;;;;;;4.03;100.00;92813.28;2106095;28;20028;-77
2023/12/21 01:28:21;;;;;;;0.30;0.30;;;;;;;3.92;100.00;92815.97;2114953;28;20027;-80
2023/12/21 01:29:22;;;;;;;0.30;0.30;;;;;;;3.90;100.00;92814.81;2115150;28;20520;-81
2023/12/21 01:30:23;;;;;;;1.95;0.40;;;;;;;3.84;100.00;92816.34;2114222;28;20020;-78
2023/12/21 01:31:24;;;;;;;0.55;0.20;;;;;;;3.88;100.00;92812.56;2114695;28;20035;-79
2023/12/21 01:32:25;;;;;;;0.30;0.30;;;;;;;3.92;100.00;92808.03;2122368;27;20486;-78
2023/12/21 01:33:26;;;;;;;0.30;0.30;;;;;;;3.85;100.00;92817.84;2129343;27;20102;-79
2023/12/21 01:34:27;;;;;;;0.40;0.40;;;;;;;3.86;100.00;92814.81;2123643;27;20031;-78
2023/12/21 01:35:28;;;;;;;0.95;0.32;;;;;;;3.85;100.00;92813.31;2114526;28;20055;-81
2023/12/21 01:36:29;;;;;;;0.20;0.20;;;;;;;3.82;100.00;92802.75;2106189;28;20028;-76
2023/12/21 01:37:30;;;;;;;1.30;0.22;;;;;;;3.87;100.00;92810.31;2123052;27;20464;-81
2023/12/21 01:38:32;;;;;;;0.30;0.30;;;;;;;4.07;100.00;92808.75;2123051;27;20031;-79
2023/12/21 01:39:33;;;;;;;0.55;0.20;;;;;;;3.97;100.00;92805.00;2106090;28;20493;-78
2023/12/21 01:40:34;;;;;;;0.28;0.20;;;;;;;3.86;100.00;92808.78;2110062;28;20023;-76
2023/12/21 01:41:35;;;;;;;0.20;0.20;;;;;;;4.00;100.00;92801.59;2121084;27;20099;-79
2023/12/21 01:42:36;;;;;;;1.08;0.30;;;;;;;4.00;100.00;92798.94;2110647;28;20028;-78
2023/12/21 01:43:46;;;;;;;0.30;0.30;;;;;;;3.95;100.00;92793.28;2121279;27;20388;-78
2023/12/21 01:44:47;;;;;;;;;;;;;;;3.77;100.00;92790.66;2113733;28;20802;-78
2023/12/21 01:45:48;;;;;;;2.45;0.32;;;;;;;3.85;100.00;92778.19;2109373;28;19918;-78
2023/12/21 01:46:49;;;;;;;0.38;0.30;;;;;;;3.68;100.00;92792.94;2121402;27;20460;-78
2023/12/21 01:47:51;;;;;;;0.35;0.28;;;;;;;3.71;100.00;92785.00;2122261;27;20031;-77
2023/12/21 01:48:52;;;;;;;0.20;0.20;;;;;;;3.65;100.00;92786.53;2114984;28;20126;-80
2023/12/21 01:49:53;;;;;;;0.30;0.30;;;;;;;3.82;100.00;92782.38;2116523;27;20024;-80
2023/12/21 01:50:55;;;;;;;0.30;0.30;;;;;;;4.01;100.00;92786.47;2121781;27;20027;-81
2023/12/21 01:51:56;;;;;;;0.63;0.22;;;;;;;4.03;100.00;92781.53;2119032;27;20023;-78
2023/12/21 01:52:59;;;;;;;0.30;0.30;;;;;;;4.16;100.00;92787.19;2106213;28;20441;-77
2023/12/21 01:54:03;;;;;;;0.30;0.30;;;;;;;4.00;100.00;92782.34;2114424;28;20030;-79
2023/12/21 01:55:05;;;;;;;0.30;0.30;;;;;;;4.03;100.00;92792.88;2114222;28;20681;-77
2023/12/21 01:56:06;;;;;;;0.20;0.20;;;;;;;3.95;100.00;92782.69;2113930;28;20404;-77
2023/12/21 01:57:08;;;;;;;0.47;0.30;;;;;;;3.97;100.00;92783.09;2122753;27;20106;-80
2023/12/21 01:58:09;;;;;;;0.20;0.20;;;;;;;4.03;100.00;92778.91;2122706;27;20015;-80
2023/12/21 01:59:10;;;;;;;1.65;0.22;;;;;;;4.21;100.00;92778.84;2118558;27;20067;-80
2023/12/21 02:00:12;;;;;;;0.25;0.25;;;;;;;3.91;100.00;92766.13;2115123;27;20020;-79
2023/12/21 02:01:17;;;;;;;0.30;0.30;;;;;;;3.91;100.00;92774.78;2115050;28;20023;-79
2023/12/21 02:02:18;;;;;;;0.20;0.20;;;;;;;3.90;100.00;92767.97;2106020;28;20417;-78
2023/12/21 02:03:19;;;;;;;0.57;0.20;;;;;;;4.11;100.00;92774.34;2105966;28;20031;-79
2023/12/21 02:04:26;;;;;;;0.30;0.30;;;;;;;3.86;100.00;92764.59;2115829;27;20476;-79
2023/12/21 02:05:27;;;;;;;0.22;0.22;;;;;;;3.92;100.00;92764.97;2116945;27;20038;-78
2023/12/21 02:06:28;;;;;;;0.30;0.30;;;;;;;3.96;100.00;92774.41;2028710;27;20022;-79
2023/12/21 02:07:29;;;;;;;0.25;0.25;;;;;;;3.87;100.00;92758.19;2022076;28;20024;-81
2023/12/21 02:08:30;;;;;;;0.30;0.22;;;;;;;3.79;100.00;92765.38;2027127;28;20702;-79
2023/12/21 02:09:31;;;;;;;0.28;0.20;;;;;;;4.15;100.00;92754.69;2041671;27;20118;-78
2023/12/21 02:10:32;;;;;;;0.68;0.40;;;;;;;4.00;100.00;92764.56;2036642;27;20031;-79
2023/12/21 02:11:33;;;;;;;0.20;0.20;;;;;;;3.97;100.00;92765.31;2080279;27;20656;-79
2023/12/21 02:12:34;;;;;;;0.20;0.20;;;;;;;4.01;100.00;92766.06;2108909;27;20062;-79
2023/12/21 02:13:35;;;;;;;0.20;0.20;;;;;;;3.89;100.00;92766.47;2047130;27;20035;-79
2023/12/21 02:14:36;;;;;;;0.20;0.20;;;;;;;4.18;100.00;92759.22;2027063;27;20122;-78
2023/12/21 02:15:37;;;;;;;0.30;0.30;;;;;;;4.08;100.00;92759.25;2031872;27;20026;-76
2023/12/21 02:16:46;;;;;;;0.20;0.20;;;;;;;3.94;100.00;92765.34;2039613;27;21403;-76
2023/12/21 02:17:48;;;;;;;0.20;0.20;;;;;;;3.86;100.00;92769.13;2047062;27;20027;-78
2023/12/21 02:18:50;;;;;;;0.47;0.40;;;;;;;3.88;100.00;92766.88;2051506;27;21749;-80
2023/12/21 02:19:51;;;;;;;0.20;0.20;;;;;;;3.98;100.00;92779.31;2056761;27;20034;-80
2023/12/21 02:20:53;;;;;;;0.20;0.20;;;;;;;3.95;100.00;92772.13;2053552;28;20511;-78
2023/12/21 02:21:59;;;;;;;0.40;0.30;;;;;;;3.99;100.00;92768.34;2068653;27;21614;-78
2023/12/21 02:23:03;;;;;;;0.30;0.30;;;;;;;4.21;100.00;92768.28;2075226;27;20522;-79
2023/12/21 02:24:14;;;;;;;1.48;0.32;;;;;;;4.18;100.00;92761.13;2069993;28;20065;-79
2023/12/21 02:25:15;;;;;;;0.30;0.30;;;;;;;4.11;100.00;92761.88;2075054;28;20043;-78
2023/12/21 02:26:18;;;;;;;0.30;0.30;;;;;;;4.15;100.00;92761.88;2071669;28;20862;-80
2023/12/21 02:27:19;;;;;;;1.42;0.30;;;;;;;3.95;100.00;92759.69;2084180;28;20024;-78
2023/12/21 02:28:20;;;;;;;0.17;0.17;;;;;;;3.97;100.00;92754.75;2091617;28;20028;-81
2023/12/21 02:29:21;;;;;;;0.28;0.20;;;;;;;4.01;100.00;92760.78;2101280;28;20028;-79
2023/12/21 02:30:22;;;;;;;0.30;0.30;;;;;;;4.03;100.00;92747.91;2108144;28;20077;-78
2023/12/21 02:31:23;;;;;;;0.75;0.32;;;;;;;4.03;100.00;92747.16;2114112;28;20472;-78
2023/12/21 02:32:24;;;;;;;0.43;0.20;;;;;;;3.93;100.00;92737.38;2113784;28;20030;-79
2023/12/21 02:33:25;;;;;;;0.20;0.20;;;;;;;4.00;100.00;92746.06;2122726;27;20076;-80
2023/12/21 02:34:26;;;;;;;0.30;0.30;;;;;;;4.10;100.00;92733.19;2122647;27;20035;-78
2023/12/21 02:35:27;;;;;;;0.40;0.40;;;;;;;4.17;100.00;92738.44;2122518;28;20464;-79
2023/12/21 02:36:28;;;;;;;0.20;0.20;;;;;;;3.99;100.00;92733.97;2114890;27;20069;-78
2023/12/21 02:37:29;;;;;;;0.20;0.20;;;;;;;3.93;100.00;92738.13;2105647;28;20139;-79
2023/12/21 02:38:31;;;;;;;0.82;0.28;;;;;;;3.91;100.00;92731.75;2105811;28;20028;-82
2023/12/21 02:39:32;;;;;;;0.20;0.20;;;;;;;4.04;100.00;92732.84;2105608;28;20019;-80
2023/12/21 02:40:33;;;;;;;1.17;0.30;;;;;;;4.08;100.00;92728.25;2089020;28;20025;-79
2023/12/21 02:41:34;;;;;;;0.50;0.30;;;;;;;4.03;100.00;92726.75;2097706;28;20107;-79
2023/12/21 02:42:35;;;;;;;0.20;0.20;;;;;;;3.92;100.00;92726.06;2114675;28;20015;-77
2023/12/21 02:43:36;;;;;;;0.38;0.20;;;;;;;4.00;100.00;92724.91;2113453;28;20027;-77
2023/12/21 02:44:37;;;;;;;0.20;0.20;;;;;;;4.13;100.00;92737.72;2113407;28;20035;-78
2023/12/21 02:45:38;;;;;;;0.30;0.30;;;;;;;4.17;100.00;92731.28;2114683;28;20024;-78
2023/12/21 02:46:39;;;;;;;0.30;0.30;;;;;;;4.35;100.00;92711.94;2122292;28;20491;-78
2023/12/21 02:47:40;;;;;;;0.45;0.20;;;;;;;4.18;100.00;92710.88;2122387;28;20027;-78
2023/12/21 02:48:40;;;;;;;1.38;0.30;;;;;;;4.02;100.00;92704.09;2117985;28;20035;-77
2023/12/21 02:49:41;;;;;;;0.75;0.20;;;;;;;4.20;100.00;92709.31;2105149;28;20020;-78
2023/12/21 02:50:42;;;;;;;0.35;0.30;;;;;;;4.23;100.00;92705.16;2108490;28;20077;-79
2023/12/21 02:51:43;;;;;;;0.20;0.20;;;;;;;4.24;100.00;92701.38;2115776;28;20372;-79
2023/12/21 02:52:44;;;;;;;0.25;0.25;;;;;;;4.12;100.00;92694.63;2113884;28;20024;-79
2023/12/21 02:53:45;;;;;;;0.20;0.20;;;;;;;4.22;100.00;92698.38;2115034;28;20045;-78
2023/12/21 02:54:46;;;;;;;0.30;0.30;;;;;;;4.22;100.00;92693.84;2119212;28;20027;-77
2023/12/21 02:55:47;;;;;;;0.30;0.30;;;;;;;4.15;100.00;92685.94;2122396;28;20031;-77
2023/12/21 02:56:48;;;;;;;0.30;0.30;;;;;;;4.19;100.00;92691.19;2116171;28;20435;-75
2023/12/21 02:57:49;;;;;;;0.20;0.20;;;;;;;4.08;100.00;92688.59;2119890;28;20016;-78
2023/12/21 02:58:50;;;;;;;0.25;0.25;;;;;;;4.00;100.00;92687.88;2114125;28;20055;-79
2023/12/21 02:59:51;;;;;;;0.30;0.30;;;;;;;4.15;100.00;92685.94;2119499;28;20019;-80
2023/12/21 03:00:52;;;;;;;0.30;0.30;;;;;;;4.10;100.00;92678.41;2114069;28;20560;-80
2023/12/21 03:01:52;;;;;;;0.85;0.20;;;;;;;4.13;100.00;92690.84;2104092;28;20020;-79
2023/12/21 03:02:53;;;;;;;0.30;0.30;;;;;;;4.08;100.00;92693.13;2117113;28;20472;-76
2023/12/21 03:03:55;;;;;;;0.20;0.20;;;;;;;4.10;100.00;92685.56;2117754;28;20099;-78
2023/12/21 03:04:55;;;;;;;0.30;0.30;;;;;;;4.03;100.00;92684.47;2035708;27;20034;-77
2023/12/21 03:05:56;;;;;;;0.20;0.20;;;;;;;3.87;100.00;92676.22;2029837;28;20102;-80
2023/12/21 03:06:57;;;;;;;0.30;0.30;;;;;;;4.00;100.00;92676.56;2009867;28;20038;-78
2023/12/21 03:07:58;;;;;;;0.20;0.20;;;;;;;3.90;100.00;92672.81;2035803;28;20035;-79
2023/12/21 03:08:59;;;;;;;0.32;0.20;;;;;;;3.97;100.00;92666.75;2040266;28;20034;-81
2023/12/21 03:10:00;;;;;;;0.20;0.20;;;;;;;3.98;100.00;92645.19;2043702;27;20031;-78
2023/12/21 03:11:02;;;;;;;0.30;0.30;;;;;;;4.19;100.00;92657.56;2040272;28;20023;-78
2023/12/21 03:12:03;;;;;;;0.75;0.40;;;;;;;4.22;100.00;92653.41;2056163;28;20031;-80
2023/12/21 03:13:04;;;;;;;0.20;0.20;;;;;;;4.15;100.00;92646.25;2067302;27;20057;-78
2023/12/21 03:14:05;;;;;;;0.68;0.30;;;;;;;4.20;100.00;92655.66;2069512;27;20057;-77
2023/12/21 03:15:06;;;;;;;1.15;0.35;;;;;;;4.22;100.00;92653.41;2064666;28;20574;-78
2023/12/21 03:16:07;;;;;;;0.17;0.17;;;;;;;4.17;100.00;92646.63;2061840;28;20027;-77
2023/12/21 03:17:08;;;;;;;0.20;0.20;;;;;;;4.15;100.00;92637.56;2070180;28;22159;-79
2023/12/21 03:18:10;;;;;;;0.35;0.25;;;;;;;4.09;100.00;92647.06;2082389;28;20499;-79
2023/12/21 03:19:12;;;;;;;0.20;0.20;;;;;;;4.18;100.00;92628.88;2065977;28;20099;-79
2023/12/21 03:20:13;;;;;;;0.20;0.20;;;;;;;4.11;100.00;92624.34;2078593;27;20036;-76
2023/12/21 03:21:15;;;;;;;0.20;0.20;;;;;;;4.17;100.00;92629.97;2099393;27;20031;-78
2023/12/21 03:22:16;;;;;;;0.55;0.20;;;;;;;4.00;100.00;92621.78;2117260;27;20076;-84
2023/12/21 03:23:17;;;;;;;0.20;0.20;;;;;;;3.99;100.00;92619.50;2120867;27;20092;-78
2023/12/21 03:24:17;;;;;;;0.20;0.20;;;;;;;4.20;100.00;92624.69;2118470;27;20028;-77
2023/12/21 03:25:18;;;;;;;0.52;0.20;;;;;;;4.20;100.00;92631.88;2115270;28;20039;-79
2023/12/21 03:26:19;;;;;;;0.20;0.20;;;;;;;4.14;100.00;92636.06;2103668;28;20077;-77
2023/12/21 03:27:20;;;;;;;0.20;0.20;;;;;;;4.12;100.00;92625.09;2115524;28;20024;-81
2023/12/21 03:28:21;;;;;;;0.20;0.20;;;;;;;4.14;100.00;92633.41;2114752;28;20024;-79
2023/12/21 03:29:22;;;;;;;0.20;0.20;;;;;;;4.28;100.00;92641.28;2115422;28;20030;-80
2023/12/21 03:30:23;;;;;;;0.30;0.30;;;;;;;4.12;100.00;92630.41;2123069;27;20704;-78
2023/12/21 03:31:24;;;;;;;0.20;0.20;;;;;;;4.13;100.00;92630.03;2105951;28;20492;-77
2023/12/21 03:32:25;;;;;;;0.20;0.20;;;;;;;4.36;100.00;92626.88;2106586;28;20058;-78
2023/12/21 03:33:26;;;;;;;0.20;0.20;;;;;;;4.33;100.00;92632.91;2125325;27;20035;-80
2023/12/21 03:34:27;;;;;;;0.25;0.20;;;;;;;4.40;100.00;92637.44;2112305;28;20023;-80
2023/12/21 03:35:28;;;;;;;0.10;0.10;;;;;;;4.39;100.00;92638.53;2098020;28;20020;-80
2023/12/21 03:36:29;;;;;;;0.20;0.20;;;;;;;4.44;100.00;92648.75;2104327;28;20035;-80
2023/12/21 03:37:31;;;;;;;0.20;0.20;;;;;;;4.34;100.00;92644.25;2110375;28;20027;-77
2023/12/21 03:38:32;;;;;;;0.30;0.30;;;;;;;4.21;100.00;92631.47;2123007;27;20034;-79
2023/12/21 03:39:36;;;;;;;0.98;0.20;;;;;;;4.47;100.00;92632.06;2116201;27;20341;-80
2023/12/21 03:40:37;;;;;;;0.20;0.20;;;;;;;4.84;100.00;92634.09;2116154;27;20039;-80
2023/12/21 03:41:38;;;;;;;0.20;0.20;;;;;;;4.40;100.00;92629.50;2116110;27;20027;-79
2023/12/21 03:42:39;;;;;;;0.20;0.20;;;;;;;4.40;100.00;92624.19;2115082;27;20514;-79
2023/12/21 03:43:40;;;;;;;1.90;0.22;;;;;;;4.28;100.00;92626.16;2115080;27;20027;-80
2023/12/21 03:44:41;;;;;;;0.22;0.20;;;;;;;4.12;100.00;92603.94;2115282;28;20024;-78
2023/12/21 03:45:42;;;;;;;0.20;0.20;;;;;;;4.27;100.00;92605.38;2115356;27;20028;-81
2023/12/21 03:46:43;;;;;;;0.20;0.20;;;;;;;4.29;100.00;92605.72;2116505;27;20028;-79
2023/12/21 03:47:44;;;;;;;0.95;0.20;;;;;;;4.44;100.00;92591.28;2102790;28;20050;-79
2023/12/21 03:48:45;;;;;;;1.20;0.40;;;;;;;4.33;100.00;92601.16;2111417;28;20027;-77
2023/12/21 03:49:46;;;;;;;0.40;0.30;;;;;;;4.39;100.00;92604.94;2123278;27;20030;-78
2023/12/21 03:50:47;;;;;;;0.20;0.20;;;;;;;4.44;100.00;92612.44;2118485;27;20760;-78
2023/12/21 03:51:48;;;;;;;0.20;0.20;;;;;;;4.35;100.00;92598.16;2122841;27;20034;-80
2023/12/21 03:52:48;;;;;;;0.20;0.20;;;;;;;4.29;100.00;92611.03;2123095;27;20031;-79
2023/12/21 03:53:49;;;;;;;0.15;0.13;;;;;;;4.29;100.00;92597.78;2115251;28;20028;-83
2023/12/21 03:54:50;;;;;;;0.77;0.20;;;;;;;4.35;100.00;92608.75;2106570;28;20488;-78
2023/12/21 03:55:51;;;;;;;0.20;0.20;;;;;;;4.31;100.00;92605.38;2114823;28;20055;-79
2023/12/21 03:56:52;;;;;;;0.20;0.20;;;;;;;4.37;100.00;92599.25;2123140;27;20019;-78
2023/12/21 03:57:53;;;;;;;0.20;0.20;;;;;;;4.36;100.00;92600.41;2123908;27;20473;-81
2023/12/21 03:59:00;;;;;;;1.98;0.22;;;;;;;4.53;100.00;92591.59;2116058;28;20020;-77
2023/12/21 04:00:01;;;;;;;0.38;0.20;;;;;;;4.40;100.00;92595.09;2115987;28;20555;-77
2023/12/21 04:01:02;;;;;;;0.28;0.28;;;;;;;4.36;100.00;92602.31;2115932;28;20028;-78
2023/12/21 04:02:04;;;;;;;0.68;0.20;;;;;;;4.24;100.00;92603.50;2115138;28;20019;-78
2023/12/21 04:03:05;;;;;;;0.20;0.20;;;;;;;4.39;100.00;92596.22;2115293;28;20024;-77
2023/12/21 04:04:06;;;;;;;0.20;0.20;;;;;;;4.42;100.00;92598.09;2115790;28;20023;-82
2023/12/21 04:05:06;;;;;;;0.10;0.10;;;;;;;4.44;100.00;92596.56;2122890;27;20046;-80
2023/12/21 04:06:07;;;;;;;0.20;0.20;;;;;;;4.62;100.00;92595.69;2115415;28;20027;-78
2023/12/21 04:07:09;;;;;;;0.10;0.10;;;;;;;4.65;100.00;92597.53;2119018;27;20024;-77
2023/12/21 04:08:10;;;;;;;0.20;0.20;;;;;;;4.82;100.00;92590.59;2129267;27;20042;-79
2023/12/21 04:09:11;;;;;;;0.15;0.15;;;;;;;4.69;100.00;92593.72;2122448;27;20030;-77
2023/12/21 04:10:12;;;;;;;0.20;0.20;;;;;;;4.65;100.00;92584.31;2128933;27;20049;-80
2023/12/21 04:11:14;;;;;;;0.20;0.20;;;;;;;4.82;100.00;92586.06;2119770;27;20030;-81
2023/12/21 04:12:15;;;;;;;0.20;0.20;;;;;;;4.69;100.00;92574.44;2113711;28;20031;-78
2023/12/21 04:13:16;;;;;;;0.20;0.20;;;;;;;4.83;100.00;92578.84;2115120;28;20094;-77
2023/12/21 04:14:17;;;;;;;0.10;0.10;;;;;;;4.73;100.00;92567.22;2108542;27;20024;-78
2023/12/21 04:15:18;;;;;;;0.20;0.20;;;;;;;4.61;100.00;92563.19;2107032;28;20020;-77
2023/12/21 04:16:19;;;;;;;0.20;0.20;;;;;;;4.55;100.00;92562.81;2114804;28;20032;-78
2023/12/21 04:17:20;;;;;;;0.10;0.10;;;;;;;4.75;100.00;92562.31;2115133;28;20865;-78
2023/12/21 04:18:21;;;;;;;0.20;0.20;;;;;;;4.78;100.00;92561.50;2114849;28;20027;-81
2023/12/21 04:19:22;;;;;;;0.10;0.10;;;;;;;4.84;100.00;92565.25;2106431;28;20100;-81
2023/12/21 04:20:23;;;;;;;0.20;0.20;;;;;;;4.64;100.00;92567.66;2108205;27;20539;-80
2023/12/21 04:21:24;;;;;;;0.20;0.20;;;;;;;4.66;100.00;92565.41;2105091;28;20488;-80
2023/12/21 04:22:25;;;;;;;0.20;0.20;;;;;;;4.68;100.00;92560.47;2112647;28;20035;-80
2023/12/21 04:23:27;;;;;;;0.20;0.20;;;;;;;4.67;100.00;92569.53;2123355;27;20105;-81
2023/12/21 04:24:28;;;;;;;1.00;0.20;;;;;;;4.59;100.00;92570.00;2113894;28;20024;-81
2023/12/21 04:25:29;;;;;;;0.10;0.10;;;;;;;4.69;100.00;92571.78;2106407;28;20512;-79
2023/12/21 04:26:30;;;;;;;0.20;0.20;;;;;;;4.74;100.00;92564.19;2114605;28;20020;-78
2023/12/21 04:27:32;;;;;;;0.10;0.10;;;;;;;4.77;100.00;92578.53;2115918;28;20384;-80
2023/12/21 04:28:33;;;;;;;0.20;0.20;;;;;;;4.83;100.00;92569.03;2126705;27;20022;-80
2023/12/21 04:29:34;;;;;;;0.20;0.20;;;;;;;4.84;100.00;92573.19;2124165;27;20030;-79
2023/12/21 04:30:35;;;;;;;1.00;0.50;;;;;;;4.57;100.00;92565.09;2114691;28;20029;-77
2023/12/21 04:31:41;;;;;;;0.10;0.10;;;;;;;4.61;100.00;92560.53;2113342;28;20141;-79
2023/12/21 04:32:42;;;;;;;0.20;0.20;;;;;;;4.49;100.00;92559.09;2115323;27;20445;-78
2023/12/21 04:33:45;;;;;;;0.20;0.20;;;;;;;4.56;100.00;92563.56;2123683;27;20023;-79
2023/12/21 04:34:46;;;;;;;0.10;0.10;;;;;;;4.74;100.00;92550.19;2126378;27;20527;-78
2023/12/21 04:35:47;;;;;;;0.17;0.17;;;;;;;4.73;100.00;92551.34;2122611;27;20042;-78
2023/12/21 04:36:48;;;;;;;0.20;0.20;;;;;;;4.81;100.00;92547.47;2119474;27;20042;-81
2023/12/21 04:37:49;;;;;;;0.10;0.10;;;;;;;4.83;100.00;92539.13;2116708;27;20020;-78
2023/12/21 04:38:50;;;;;;;0.20;0.20;;;;;;;4.88;100.00;92528.16;2111440;27;20028;-78
2023/12/21 04:39:51;;;;;;;0.20;0.20;;;;;;;4.78;100.00;92530.50;2115568;27;20023;-76
2023/12/21 04:40:52;;;;;;;0.20;0.20;;;;;;;4.82;100.00;92535.00;2119009;27;20056;-78
2023/12/21 04:41:52;;;;;;;0.20;0.20;;;;;;;5.03;100.00;92530.25;2106757;28;20028;-78
2023/12/21 04:42:55;;;;;;;0.20;0.20;;;;;;;4.87;100.00;92543.25;2100027;28;20021;-81
2023/12/21 04:43:56;;;;;;;0.75;0.20;;;;;;;5.03;100.00;92530.25;2118257;27;20027;-79
2023/12/21 04:44:57;;;;;;;0.30;0.30;;;;;;;4.88;100.00;92522.84;2121644;27;20034;-79
2023/12/21 04:45:58;;;;;;;0.20;0.20;;;;;;;4.86;100.00;92552.34;2121229;27;20026;-79
2023/12/21 04:46:59;;;;;;;0.20;0.20;;;;;;;4.74;100.00;92534.31;2116198;27;20022;-77
2023/12/21 04:48:00;;;;;;;0.20;0.20;;;;;;;4.82;100.00;92529.69;2119536;27;20392;-79
2023/12/21 04:49:01;;;;;;;0.20;0.20;;;;;;;4.96;100.00;92529.56;2113619;28;20058;-79